Time;durP1;ratioP1;P1;durP2;ratioP2;P2;SDS_P1;SDS_P2;PMS_P1;PMS_P2;Temp;Humidity;BMP_temperature;BMP_pressure;BME280_temperature;BME280_humidity;BME280_pressure;Samples;Min_cycle;Max_cycle;Signal;HPM_P1;HPM_P2
2022/05/20 00:00:27;;;;;;;2.53;2.08;;;;;;;20.40;80.81;101378.69;5021975;28;20322;-53
2022/05/20 00:02:54;;;;;;;4.88;2.40;;;;;;;20.43;80.90;101388.38;5023800;28;20694;-52
2022/05/20 00:05:22;;;;;;;2.30;2.10;;;;;;;20.30;82.04;101387.00;5024589;28;20228;-52
2022/05/20 00:07:48;;;;;;;2.40;2.20;;;;;;;20.56;81.74;101384.41;5018646;28;20236;-53
2022/05/20 00:10:16;;;;;;;3.20;2.45;;;;;;;20.52;80.53;101393.44;5015640;28;20237;-52
2022/05/20 00:12:42;;;;;;;2.17;2.03;;;;;;;20.40;81.46;101399.16;5024875;28;20239;-52
2022/05/20 00:15:10;;;;;;;3.00;2.75;;;;;;;20.41;81.76;101395.56;5016066;28;20297;-52
2022/05/20 00:17:36;;;;;;;2.75;2.40;;;;;;;20.31;82.44;101405.63;5014681;28;20233;-53
2022/05/20 00:20:04;;;;;;;2.78;2.53;;;;;;;20.25;82.25;101413.81;5020083;28;20655;-52
2022/05/20 00:22:32;;;;;;;2.40;2.20;;;;;;;20.30;82.78;101408.34;5024985;28;20236;-52
2022/05/20 00:27:42;;;;;;;2.28;2.13;;;;;;;20.22;84.02;101413.91;5016690;28;20742;-53
2022/05/20 00:30:10;;;;;;;3.38;3.00;;;;;;;20.07;84.11;101411.69;5014320;28;20232;-53
2022/05/20 00:32:37;;;;;;;3.15;2.70;;;;;;;20.09;84.16;101409.88;5024346;28;20229;-53
2022/05/20 00:35:05;;;;;;;2.40;2.20;;;;;;;20.05;84.87;101416.22;5011665;28;20259;-53
2022/05/20 00:37:32;;;;;;;2.60;2.40;;;;;;;19.98;86.76;101412.84;5018103;28;20284;-53
2022/05/20 00:39:59;;;;;;;2.83;2.63;;;;;;;19.96;85.84;101417.34;5020928;28;20240;-53
2022/05/20 00:42:25;;;;;;;4.30;2.70;;;;;;;19.95;86.02;101408.47;5027944;28;20240;-52
2022/05/20 00:44:52;;;;;;;3.35;3.00;;;;;;;19.92;86.38;101413.03;5023483;28;20236;-53
2022/05/20 00:47:19;;;;;;;2.85;2.65;;;;;;;19.99;86.81;101407.47;5026287;28;20235;-53
2022/05/20 00:49:47;;;;;;;2.67;2.47;;;;;;;19.85;87.00;101422.97;5022279;28;20228;-53
2022/05/20 00:52:15;;;;;;;2.95;2.75;;;;;;;19.79;87.29;101418.69;5024478;28;20273;-53
2022/05/20 00:54:46;;;;;;;3.00;2.70;;;;;;;19.80;87.56;101419.59;5020880;28;20257;-52
2022/05/20 00:57:15;;;;;;;7.00;2.88;;;;;;;19.81;87.29;101421.31;5029014;28;20710;-53
2022/05/20 00:59:48;;;;;;;3.72;2.90;;;;;;;19.85;87.92;101422.97;5021434;28;20286;-52
2022/05/20 01:02:17;;;;;;;4.82;2.88;;;;;;;19.66;88.65;101421.75;5026330;28;20240;-53
2022/05/20 01:04:44;;;;;;;2.72;2.53;;;;;;;19.61;89.16;101427.16;5027851;28;20494;-53
2022/05/20 01:07:11;;;;;;;2.97;2.67;;;;;;;19.79;88.71;101429.34;5028574;28;20229;-53
2022/05/20 01:09:38;;;;;;;2.63;2.47;;;;;;;19.66;88.96;101435.09;5018364;28;20224;-53
2022/05/20 01:12:07;;;;;;;6.40;2.95;;;;;;;19.72;89.25;101445.56;5022077;28;20718;-53
2022/05/20 01:14:34;;;;;;;3.75;3.08;;;;;;;19.71;90.07;101447.34;5019438;28;20941;-59
2022/05/20 01:17:00;;;;;;;3.63;2.58;;;;;;;19.61;89.14;101444.94;5015615;28;20228;-53
2022/05/20 01:19:32;;;;;;;4.75;3.22;;;;;;;19.54;90.14;101446.91;5027444;28;20260;-57
2022/05/20 01:21:58;;;;;;;3.42;2.83;;;;;;;19.55;89.85;101451.34;5024530;28;20237;-54
2022/05/20 01:24:27;;;;;;;5.43;3.00;;;;;;;19.54;90.40;101445.09;5025041;28;20287;-53
2022/05/20 01:26:53;;;;;;;2.80;2.60;;;;;;;19.48;90.59;101445.28;5017667;28;20305;-53
2022/05/20 01:29:20;;;;;;;2.97;2.67;;;;;;;19.51;90.73;101445.19;5019936;28;20279;-54
2022/05/20 01:31:46;;;;;;;3.80;3.40;;;;;;;19.45;91.00;101450.69;5023836;28;20236;-53
2022/05/20 01:34:13;;;;;;;3.97;3.58;;;;;;;19.35;91.28;101441.19;5026882;28;20233;-52
2022/05/20 01:36:39;;;;;;;4.60;3.30;;;;;;;19.38;91.73;101457.09;5026515;28;20229;-52
2022/05/20 01:39:06;;;;;;;5.63;3.30;;;;;;;19.28;92.44;101458.25;5021765;28;20718;-54
2022/05/20 01:41:37;;;;;;;4.43;4.13;;;;;;;19.19;93.24;101464.66;5021989;28;20228;-52
2022/05/20 01:44:08;;;;;;;7.90;3.72;;;;;;;19.18;93.80;101468.25;5018551;28;20290;-52
2022/05/20 01:46:38;;;;;;;5.20;4.80;;;;;;;19.15;93.67;101470.09;5027514;28;20241;-52
2022/05/20 01:49:13;;;;;;;7.15;4.35;;;;;;;19.20;93.70;101476.19;5015102;28;20312;-53
2022/05/20 01:51:43;;;;;;;4.97;4.57;;;;;;;19.15;94.12;101480.75;5018875;28;20589;-53
2022/05/20 01:54:14;;;;;;;5.03;4.57;;;;;;;19.12;94.37;101487.03;5029754;28;20478;-53
2022/05/20 01:56:46;;;;;;;5.18;4.70;;;;;;;19.16;94.45;101490.47;5026118;28;20258;-52
2022/05/20 01:59:15;;;;;;;4.82;4.43;;;;;;;19.22;94.20;101495.66;5026769;28;20763;-53
2022/05/20 02:01:45;;;;;;;5.60;5.10;;;;;;;19.16;93.94;101498.47;5022911;28;20232;-53
2022/05/20 02:04:15;;;;;;;4.80;4.40;;;;;;;19.15;94.80;101497.59;5017032;28;20255;-53
2022/05/20 02:06:45;;;;;;;8.23;5.43;;;;;;;19.26;94.42;101494.66;5025374;28;20244;-54
2022/05/20 02:09:14;;;;;;;5.43;5.03;;;;;;;19.33;93.89;101501.59;5025420;28;20225;-53
2022/05/20 02:11:44;;;;;;;6.50;4.97;;;;;;;19.28;94.09;101490.19;5015443;28;20265;-53
2022/05/20 02:14:15;;;;;;;6.35;5.68;;;;;;;19.32;93.73;101502.50;5023207;28;20244;-54
2022/05/20 02:16:44;;;;;;;7.15;5.47;;;;;;;19.21;94.53;101499.25;5024506;28;20737;-54
2022/05/20 02:19:22;;;;;;;6.75;6.13;;;;;;;19.14;94.52;101505.63;5025158;28;20735;-52
2022/05/20 02:21:53;;;;;;;6.32;5.72;;;;;;;19.16;95.79;101490.47;5028398;28;20271;-52
2022/05/20 02:24:22;;;;;;;7.82;6.45;;;;;;;19.05;94.86;101510.25;5010550;28;20256;-52
2022/05/20 02:26:54;;;;;;;6.25;5.22;;;;;;;19.07;95.92;101508.44;5019981;28;20245;-52
2022/05/20 02:29:23;;;;;;;5.82;5.22;;;;;;;18.96;96.13;101510.47;5020281;28;20263;-52
2022/05/20 02:31:53;;;;;;;6.82;6.15;;;;;;;19.05;96.42;101506.72;5026501;28;20295;-51
2022/05/20 02:34:20;;;;;;;6.20;5.60;;;;;;;19.07;95.98;101495.13;5025815;28;20347;-53
2022/05/20 02:36:46;;;;;;;6.65;6.15;;;;;;;19.14;95.75;101497.66;5016013;28;20229;-53
2022/05/20 02:39:15;;;;;;;6.22;5.72;;;;;;;19.03;95.70;101498.78;5019160;28;20232;-53
2022/05/20 02:41:44;;;;;;;6.35;5.85;;;;;;;19.00;96.31;101495.31;5022938;28;20319;-51
2022/05/20 02:44:12;;;;;;;5.72;5.30;;;;;;;18.93;96.91;101493.72;5015397;28;20237;-52
2022/05/20 02:46:39;;;;;;;6.63;5.85;;;;;;;18.84;97.13;101494.78;5024743;28;20616;-53
2022/05/20 02:49:05;;;;;;;6.40;5.90;;;;;;;18.86;97.14;101492.97;5020560;28;20291;-52
2022/05/20 02:51:32;;;;;;;7.57;6.30;;;;;;;18.77;97.56;101495.84;5017909;28;20302;-52
2022/05/20 02:53:58;;;;;;;6.15;5.60;;;;;;;18.86;97.59;101502.75;5019617;28;20306;-55
2022/05/20 02:56:25;;;;;;;6.30;5.70;;;;;;;18.81;97.58;101505.50;5026238;28;20240;-53
2022/05/20 03:04:29;;;;;;;6.53;5.80;;;;;;;18.76;98.62;101512.72;4995988;28;20266;-52
2022/05/20 03:06:55;;;;;;;5.57;5.18;;;;;;;18.73;98.58;101520.75;5021586;28;20256;-53
2022/05/20 03:09:23;;;;;;;6.90;6.30;;;;;;;18.74;99.18;101511.88;5016227;28;20249;-52
2022/05/20 03:11:50;;;;;;;7.13;5.63;;;;;;;18.72;99.25;101514.56;5023137;28;20787;-52
2022/05/20 03:14:22;;;;;;;6.40;5.85;;;;;;;18.75;99.53;101521.63;5022295;28;20235;-52
2022/05/20 03:16:50;;;;;;;6.82;6.22;;;;;;;18.79;99.42;101517.97;5024446;28;20232;-53
2022/05/20 03:19:18;;;;;;;6.57;6.07;;;;;;;18.75;98.92;101534.91;5021165;28;20258;-51
2022/05/20 03:21:44;;;;;;;6.78;6.10;;;;;;;18.79;98.52;101534.81;5017191;28;20244;-52
2022/05/20 03:24:12;;;;;;;6.30;5.72;;;;;;;18.78;99.06;101530.41;5029001;28;20232;-51
2022/05/20 03:26:39;;;;;;;6.03;5.53;;;;;;;18.77;98.84;101530.44;5023631;28;20236;-52
2022/05/20 03:29:06;;;;;;;5.18;4.78;;;;;;;18.72;99.24;101534.97;5021180;28;20225;-52
2022/05/20 03:31:34;;;;;;;6.72;6.13;;;;;;;18.75;99.46;101527.81;5017657;28;20233;-51
2022/05/20 03:34:05;;;;;;;6.80;6.20;;;;;;;18.82;98.32;101531.22;5020801;28;20236;-53
2022/05/20 03:36:32;;;;;;;6.93;6.22;;;;;;;18.94;96.82;101538.91;5023612;28;20236;-52
2022/05/20 03:38:58;;;;;;;5.97;5.47;;;;;;;18.89;96.80;101532.81;5018308;28;20232;-52
2022/05/20 03:41:24;;;;;;;7.32;6.65;;;;;;;18.84;96.34;101537.34;5019411;28;20253;-51
2022/05/20 03:43:51;;;;;;;6.93;5.93;;;;;;;18.81;97.28;101540.09;5023615;28;20233;-52
2022/05/20 03:46:17;;;;;;;7.75;5.35;;;;;;;18.85;97.60;101539.13;5024559;28;20656;-52
2022/05/20 03:48:44;;;;;;;5.93;5.35;;;;;;;18.83;97.68;101540.94;5023480;28;20257;-53
2022/05/20 03:51:13;;;;;;;7.47;6.78;;;;;;;18.86;98.32;101537.34;5019731;28;20659;-53
2022/05/20 03:53:41;;;;;;;6.35;5.75;;;;;;;19.02;99.08;101544.94;5012427;28;20232;-52
2022/05/20 03:56:08;;;;;;;7.53;6.82;;;;;;;18.95;98.33;101539.78;5024657;28;20264;-52
2022/05/20 03:58:35;;;;;;;7.80;7.10;;;;;;;18.83;99.21;101549.78;5008918;28;20724;-52
2022/05/20 04:03:46;;;;;;;8.68;7.85;;;;;;;18.84;99.35;101538.22;5027110;28;20258;-53
2022/05/20 04:06:14;;;;;;;7.38;6.78;;;;;;;18.76;100.00;101549.97;5019754;28;20260;-52
2022/05/20 04:08:41;;;;;;;7.82;7.10;;;;;;;18.72;100.00;101553.59;5016916;28;20825;-52
2022/05/20 04:11:11;;;;;;;7.53;6.82;;;;;;;18.68;100.00;101554.56;5019795;28;20672;-52
2022/05/20 04:13:39;;;;;;;8.30;7.50;;;;;;;18.80;99.73;101559.63;5024170;28;20324;-52
2022/05/20 04:16:05;;;;;;;7.60;6.90;;;;;;;18.82;99.90;101560.47;5018613;28;20234;-52
2022/05/20 04:18:32;;;;;;;7.57;6.82;;;;;;;18.73;100.00;101566.00;5019538;28;20290;-52
2022/05/20 04:20:58;;;;;;;7.88;7.18;;;;;;;18.68;100.00;101554.56;5019863;28;20688;-52
2022/05/20 04:23:26;;;;;;;7.47;6.65;;;;;;;18.65;100.00;101558.16;5025139;28;20263;-51
2022/05/20 04:25:52;;;;;;;6.82;6.20;;;;;;;18.64;100.00;101560.81;5023949;28;20255;-52
2022/05/20 04:28:19;;;;;;;8.65;7.15;;;;;;;18.70;100.00;101558.91;5017432;28;20240;-52
2022/05/20 04:30:45;;;;;;;8.25;7.55;;;;;;;18.69;100.00;101559.81;5027087;28;20264;-52
2022/05/20 04:33:13;;;;;;;12.45;7.68;;;;;;;18.69;100.00;101564.28;5027456;28;20239;-53
2022/05/20 04:35:39;;;;;;;8.80;7.93;;;;;;;18.71;100.00;101565.09;5017365;28;20237;-53
2022/05/20 04:38:06;;;;;;;11.90;8.60;;;;;;;18.81;100.00;101566.69;5019446;28;20225;-53
2022/05/20 04:40:34;;;;;;;8.40;7.70;;;;;;;18.88;99.90;101570.97;5015488;28;20674;-53
2022/05/20 04:48:27;;;;;;;9.35;8.55;;;;;;;18.96;98.99;101569.03;5014533;28;20722;-52
2022/05/20 04:50:53;;;;;;;9.63;8.52;;;;;;;18.90;99.43;101582.47;5021751;28;20243;-53
2022/05/20 04:56:02;;;;;;;9.95;8.00;;;;;;;19.06;98.15;101581.22;5022457;28;20240;-54
2022/05/20 04:58:28;;;;;;;8.98;8.18;;;;;;;18.97;98.34;101591.19;5024719;28;20302;-52
2022/05/20 05:00:55;;;;;;;9.00;8.20;;;;;;;18.90;99.25;101585.13;5023066;28;20241;-53
2022/05/20 05:03:21;;;;;;;9.73;8.93;;;;;;;18.97;98.79;101586.75;5018328;28;20252;-53
2022/05/20 05:05:48;;;;;;;9.48;8.57;;;;;;;18.99;99.10;101595.59;5026148;28;20319;-52
2022/05/20 05:08:16;;;;;;;8.82;8.07;;;;;;;18.92;98.58;101593.06;5019849;28;20240;-52
2022/05/20 05:10:43;;;;;;;8.50;7.70;;;;;;;18.93;99.12;101592.19;5027029;28;20240;-53
2022/05/20 05:13:11;;;;;;;9.90;8.93;;;;;;;19.11;97.35;101591.75;5010123;28;20707;-53
2022/05/20 05:15:37;;;;;;;10.73;9.77;;;;;;;19.08;97.60;101600.69;5020776;28;21787;-52
2022/05/20 05:18:13;;;;;;;9.77;8.77;;;;;;;19.01;97.03;101596.41;5022591;28;20255;-52
2022/05/20 05:20:45;;;;;;;9.43;8.63;;;;;;;19.17;96.77;101604.06;5014844;28;20228;-52
2022/05/20 05:23:12;;;;;;;13.07;10.18;;;;;;;19.08;96.75;101603.34;5023032;28;20225;-53
2022/05/20 05:25:38;;;;;;;9.15;8.25;;;;;;;19.07;97.59;101611.38;5019588;28;20319;-53
2022/05/20 05:28:05;;;;;;;9.95;9.15;;;;;;;19.00;97.73;101607.97;5024244;28;20264;-52
2022/05/20 05:30:34;;;;;;;9.98;8.98;;;;;;;18.98;98.01;101608.91;5020426;28;20281;-52
2022/05/20 05:33:01;;;;;;;9.52;8.45;;;;;;;18.94;98.61;101610.75;5023238;28;20610;-53
2022/05/20 05:35:29;;;;;;;9.27;8.35;;;;;;;19.05;97.98;101623.81;5021485;28;20339;-52
2022/05/20 05:37:56;;;;;;;10.05;9.25;;;;;;;18.96;97.87;101616.06;5026494;28;20244;-53
2022/05/20 05:40:24;;;;;;;10.07;9.07;;;;;;;19.02;98.15;101616.81;5027810;28;20224;-53
2022/05/20 05:42:52;;;;;;;10.75;9.70;;;;;;;19.15;97.70;101616.53;5025365;28;20244;-52
2022/05/20 05:45:21;;;;;;;9.10;8.23;;;;;;;19.05;98.17;101616.72;5017832;28;20248;-52
2022/05/20 05:47:53;;;;;;;10.15;9.25;;;;;;;19.13;97.38;101623.66;5021010;28;20237;-52
2022/05/20 05:50:20;;;;;;;11.88;9.45;;;;;;;19.19;96.93;101624.41;5019014;28;20765;-53
2022/05/20 05:52:46;;;;;;;11.55;7.25;;;;;;;19.37;96.82;101623.09;5020228;28;20726;-53
2022/05/20 05:55:13;;;;;;;9.95;9.05;;;;;;;19.40;95.24;101622.16;5027604;28;20267;-52
2022/05/20 05:57:40;;;;;;;10.07;9.07;;;;;;;19.22;95.68;101624.31;5025759;28;20224;-52
2022/05/20 06:00:08;;;;;;;10.25;9.35;;;;;;;19.34;95.36;101614.31;5027810;28;20283;-53
2022/05/20 06:02:34;;;;;;;11.70;9.18;;;;;;;19.39;96.08;101626.63;5027281;28;20248;-52
2022/05/20 06:05:02;;;;;;;10.63;8.73;;;;;;;19.42;94.27;101634.53;5025861;28;20290;-55
2022/05/20 06:07:28;;;;;;;10.48;9.57;;;;;;;19.44;92.70;101632.69;5028143;28;20294;-52
2022/05/20 06:09:54;;;;;;;10.70;9.70;;;;;;;19.45;92.75;101634.47;5022150;28;20232;-54
2022/05/20 06:12:21;;;;;;;10.05;9.15;;;;;;;19.30;92.17;101627.72;5028905;28;20264;-51
2022/05/20 06:14:48;;;;;;;10.48;9.57;;;;;;;19.32;91.31;101630.31;5027857;28;20240;-53
2022/05/20 06:17:14;;;;;;;9.10;8.35;;;;;;;19.23;91.72;101633.19;5018505;28;20236;-52
2022/05/20 06:19:41;;;;;;;9.20;8.38;;;;;;;19.10;91.29;101629.06;5019031;28;20240;-52
2022/05/20 06:22:09;;;;;;;9.02;8.18;;;;;;;19.14;91.37;101631.63;5027277;28;20243;-53
2022/05/20 06:24:36;;;;;;;10.25;9.35;;;;;;;19.13;90.43;101627.22;5019588;28;20268;-52
2022/05/20 06:27:02;;;;;;;10.02;9.10;;;;;;;19.37;88.43;101627.56;5024585;28;20291;-52
2022/05/20 06:29:29;;;;;;;11.07;9.90;;;;;;;19.51;87.97;101636.09;5024570;28;20229;-53
2022/05/20 06:31:55;;;;;;;9.48;8.60;;;;;;;19.59;89.00;101622.63;5015487;28;20241;-54
2022/05/20 06:34:22;;;;;;;7.63;6.97;;;;;;;19.48;88.56;101621.09;5020206;28;20241;-53
2022/05/20 06:39:52;;;;;;;9.90;9.00;;;;;;;19.54;88.09;101628.91;5020938;28;20752;-53
2022/05/20 06:42:19;;;;;;;9.15;8.32;;;;;;;19.52;88.82;101628.09;5019704;28;20268;-52
2022/05/20 06:44:46;;;;;;;9.73;8.82;;;;;;;19.50;87.81;101623.69;5026402;28;20252;-51
2022/05/20 06:47:13;;;;;;;8.82;8.07;;;;;;;19.55;87.49;101617.34;5016349;28;20644;-52
2022/05/20 06:49:39;;;;;;;8.63;7.93;;;;;;;19.57;87.22;101617.31;5014794;28;20320;-52
2022/05/20 06:52:06;;;;;;;8.57;7.57;;;;;;;19.55;88.23;101617.34;5024284;28;20229;-52
2022/05/20 06:54:34;;;;;;;9.65;8.63;;;;;;;19.66;85.64;101613.59;5025438;28;20236;-52
2022/05/20 06:57:00;;;;;;;8.57;7.80;;;;;;;19.71;82.93;101611.69;5017551;28;20236;-52
2022/05/20 06:59:27;;;;;;;8.60;7.57;;;;;;;19.56;82.90;101618.22;5024402;28;20299;-54
2022/05/20 07:01:54;;;;;;;8.52;7.72;;;;;;;19.70;82.41;101605.47;5024001;28;20798;-52
2022/05/20 07:04:20;;;;;;;6.53;5.95;;;;;;;19.91;81.40;101612.06;5018244;28;20240;-52
2022/05/20 07:06:47;;;;;;;6.90;6.32;;;;;;;19.86;79.77;101611.28;5019611;28;20702;-53
2022/05/20 07:09:13;;;;;;;7.75;6.90;;;;;;;19.85;79.42;101614.88;5019749;28;20237;-53
2022/05/20 07:11:42;;;;;;;6.28;5.25;;;;;;;19.85;80.24;101614.00;5023317;28;20985;-52
2022/05/20 07:14:08;;;;;;;7.43;6.60;;;;;;;19.82;80.97;101617.59;5023823;28;20232;-52
2022/05/20 07:16:35;;;;;;;7.93;6.65;;;;;;;19.87;79.35;101621.03;5023500;28;20232;-52
2022/05/20 07:19:01;;;;;;;8.95;6.40;;;;;;;19.97;79.79;101614.56;5025760;28;20309;-52
2022/05/20 07:21:27;;;;;;;6.78;6.18;;;;;;;20.10;77.89;101619.56;5018067;28;20232;-53
2022/05/20 07:23:54;;;;;;;11.95;6.07;;;;;;;20.15;77.06;101618.53;5022881;28;20247;-52
2022/05/20 07:26:20;;;;;;;7.68;5.40;;;;;;;20.23;78.91;101611.19;5026278;28;20235;-53
2022/05/20 07:28:48;;;;;;;6.25;5.65;;;;;;;20.27;76.43;101610.19;5016674;28;20290;-54
2022/05/20 07:31:15;;;;;;;7.03;6.32;;;;;;;20.28;75.79;101608.41;5018927;28;20319;-52
2022/05/20 07:33:43;;;;;;;6.22;5.65;;;;;;;20.25;74.63;101609.38;5012319;28;20253;-52
2022/05/20 07:36:09;;;;;;;5.95;5.45;;;;;;;20.37;74.79;101610.81;5023181;28;20306;-53
2022/05/20 07:38:36;;;;;;;5.93;5.40;;;;;;;20.39;74.44;101608.09;5015685;28;20311;-53
2022/05/20 07:41:02;;;;;;;5.80;5.30;;;;;;;20.37;73.39;101609.94;5022815;28;20263;-52
2022/05/20 07:43:29;;;;;;;4.90;4.50;;;;;;;20.43;72.58;101601.78;5024374;28;20713;-52
2022/05/20 07:45:56;;;;;;;5.93;4.88;;;;;;;20.40;72.27;101605.41;5021560;28;20698;-52
2022/05/20 07:48:23;;;;;;;6.82;5.90;;;;;;;20.36;72.21;101609.06;5016194;28;20828;-52
2022/05/20 07:50:52;;;;;;;5.32;4.93;;;;;;;20.39;72.54;101606.34;5021713;28;20236;-52
2022/05/20 07:53:29;;;;;;;5.72;5.20;;;;;;;20.45;72.80;101616.81;5017242;28;20791;-52
2022/05/20 07:55:58;;;;;;;5.65;5.10;;;;;;;20.50;70.06;101611.41;5017189;28;20803;-52
2022/05/20 07:58:28;;;;;;;4.60;4.22;;;;;;;20.51;68.88;101609.59;5018853;28;20290;-52
2022/05/20 08:00:58;;;;;;;6.22;4.40;;;;;;;20.46;69.26;101607.91;5017087;28;20249;-51
2022/05/20 08:06:10;;;;;;;5.75;4.88;;;;;;;20.80;67.86;101611.41;5012121;28;20239;-52
2022/05/20 08:08:36;;;;;;;5.95;4.30;;;;;;;20.83;67.97;101609.53;5041077;28;20811;-52
2022/05/20 08:11:03;;;;;;;4.97;4.55;;;;;;;20.85;67.55;101615.72;5017971;28;20233;-53
2022/05/20 08:13:29;;;;;;;5.22;4.38;;;;;;;20.98;67.60;101606.38;5022727;28;20702;-52
2022/05/20 08:15:56;;;;;;;5.72;5.28;;;;;;;20.81;67.90;101607.81;5023863;28;20741;-53
2022/05/20 08:18:22;;;;;;;6.53;4.78;;;;;;;20.81;67.65;101603.34;5019934;28;20235;-53
2022/05/20 08:20:50;;;;;;;4.43;3.90;;;;;;;20.86;67.50;101609.44;5023446;28;20247;-52
2022/05/20 08:23:17;;;;;;;5.10;3.95;;;;;;;20.82;64.53;101618.47;5024269;28;20237;-51
2022/05/20 08:25:43;;;;;;;3.85;3.55;;;;;;;20.87;64.24;101619.19;5025725;28;20232;-51
2022/05/20 08:28:09;;;;;;;4.72;4.28;;;;;;;20.89;64.62;101605.81;5012020;28;20280;-52
2022/05/20 08:30:36;;;;;;;6.65;3.60;;;;;;;21.17;64.10;101595.16;5005828;28;20311;-52
2022/05/20 08:33:02;;;;;;;4.07;3.78;;;;;;;21.35;63.93;101597.28;5024396;28;20263;-52
2022/05/20 08:35:29;;;;;;;4.50;4.10;;;;;;;21.58;61.18;101590.31;5016216;28;20280;-52
2022/05/20 08:37:56;;;;;;;4.68;3.25;;;;;;;21.72;60.93;101585.38;5012915;28;20252;-52
2022/05/20 08:40:25;;;;;;;4.35;3.58;;;;;;;21.71;61.93;101585.44;5011148;28;20240;-52
2022/05/20 08:42:53;;;;;;;3.92;3.60;;;;;;;21.63;61.70;101591.91;5019146;28;20306;-53
2022/05/20 08:45:22;;;;;;;5.80;3.70;;;;;;;21.81;61.46;101593.09;5021942;28;20233;-52
2022/05/20 08:47:50;;;;;;;9.35;4.47;;;;;;;21.82;60.48;101593.94;5019516;28;20252;-52
2022/05/20 08:50:20;;;;;;;3.95;2.95;;;;;;;22.05;58.68;101595.84;5022525;28;20283;-52
2022/05/20 08:52:47;;;;;;;5.30;3.60;;;;;;;22.23;57.63;101583.66;5015698;28;20232;-57
2022/05/20 08:55:15;;;;;;;5.50;2.88;;;;;;;22.46;57.21;101586.34;5021852;28;20768;-52
2022/05/20 08:57:47;;;;;;;3.40;3.20;;;;;;;22.61;57.02;101590.28;5019239;28;20286;-53
2022/05/20 09:00:14;;;;;;;4.53;4.05;;;;;;;22.32;55.87;101592.22;5015540;28;20250;-51
2022/05/20 09:02:41;;;;;;;3.63;3.33;;;;;;;22.37;55.50;101597.41;5010854;28;20233;-52
2022/05/20 09:05:18;;;;;;;3.85;3.17;;;;;;;22.31;54.96;101590.47;5011514;28;20257;-52
2022/05/20 09:07:59;;;;;;;5.00;3.88;;;;;;;22.14;56.84;101592.81;5025321;28;20247;-53
2022/05/20 09:10:31;;;;;;;3.28;3.08;;;;;;;22.18;56.84;101580.25;5024349;28;20314;-52
2022/05/20 09:13:07;;;;;;;3.67;3.38;;;;;;;22.08;57.97;101579.69;5029295;28;20224;-53
2022/05/20 09:15:44;;;;;;;5.93;4.82;;;;;;;22.38;55.56;101578.59;5025834;28;20250;-52
2022/05/20 09:18:18;;;;;;;3.75;2.78;;;;;;;22.40;53.34;101583.91;5022432;28;20240;-52
2022/05/20 09:20:48;;;;;;;3.75;2.85;;;;;;;22.41;53.35;101587.47;5027212;28;20255;-51
2022/05/20 09:23:20;;;;;;;2.97;2.72;;;;;;;22.48;54.06;101576.47;5019795;28;20233;-52
2022/05/20 09:25:51;;;;;;;4.70;4.18;;;;;;;22.53;54.76;101565.56;5022457;28;20800;-53
2022/05/20 09:28:30;;;;;;;3.30;3.00;;;;;;;22.81;54.45;101565.41;5012744;28;20241;-52
2022/05/20 09:31:05;;;;;;;4.13;3.72;;;;;;;22.87;53.47;101555.31;5025187;28;20240;-52
2022/05/20 09:33:33;;;;;;;3.78;3.47;;;;;;;23.09;54.14;101552.69;5021395;28;20940;-52
2022/05/20 09:36:01;;;;;;;4.43;3.22;;;;;;;23.33;52.49;101558.88;5026230;28;20252;-52
2022/05/20 09:38:33;;;;;;;3.78;3.10;;;;;;;23.21;50.15;101547.81;5024662;28;20232;-52
2022/05/20 09:41:10;;;;;;;4.78;2.83;;;;;;;23.44;49.41;101552.19;5023838;28;20228;-52
2022/05/20 09:43:39;;;;;;;2.00;1.90;;;;;;;23.40;46.60;101550.59;5019970;28;20239;-53
2022/05/20 09:46:06;;;;;;;3.85;2.38;;;;;;;23.43;47.43;101545.09;5026028;28;20236;-51
2022/05/20 09:48:35;;;;;;;3.05;2.75;;;;;;;23.54;47.56;101545.50;5018014;28;20263;-52
2022/05/20 09:51:07;;;;;;;3.00;2.75;;;;;;;23.32;46.36;101548.22;5023502;28;20645;-52
2022/05/20 09:53:35;;;;;;;3.40;2.97;;;;;;;23.12;47.44;101541.00;5024078;28;20257;-52
2022/05/20 09:56:19;;;;;;;2.72;2.50;;;;;;;23.25;45.25;101534.19;5019196;28;20271;-52
2022/05/20 09:58:59;;;;;;;3.78;2.53;;;;;;;23.47;45.49;101536.00;5021961;28;20233;-51
2022/05/20 10:01:27;;;;;;;2.38;2.17;;;;;;;23.83;45.45;101527.34;5024605;28;20756;-52
2022/05/20 10:03:58;;;;;;;2.47;2.22;;;;;;;24.26;44.76;101529.84;5018627;28;20294;-53
2022/05/20 10:06:28;;;;;;;2.17;2.08;;;;;;;24.44;44.52;101535.38;5022980;28;20644;-53
2022/05/20 10:08:59;;;;;;;2.50;2.30;;;;;;;24.76;43.58;101528.47;5024256;28;20246;-52
2022/05/20 10:11:35;;;;;;;2.22;2.03;;;;;;;25.13;42.62;101530.28;5024811;28;20232;-53
2022/05/20 10:14:05;;;;;;;4.53;3.05;;;;;;;25.04;42.28;101521.78;5019111;28;20638;-53
2022/05/20 10:16:36;;;;;;;2.60;2.40;;;;;;;24.80;39.83;101523.81;5025235;28;20231;-53
2022/05/20 10:19:11;;;;;;;2.45;2.25;;;;;;;24.79;40.59;101527.47;5034784;28;20259;-52
2022/05/20 10:21:48;;;;;;;5.28;3.67;;;;;;;24.48;40.52;101524.41;5028355;28;20706;-53
2022/05/20 10:24:25;;;;;;;3.55;3.30;;;;;;;24.59;41.57;101514.97;5031574;28;20240;-53
2022/05/20 10:26:56;;;;;;;4.97;2.72;;;;;;;24.93;41.85;101515.09;5022215;28;20251;-52
2022/05/20 10:34:57;;;;;;;2.63;1.98;;;;;;;25.31;39.43;101508.78;5027821;28;20244;-53
2022/05/20 10:37:29;;;;;;;5.60;3.53;;;;;;;25.43;39.27;101510.88;5032314;28;20586;-53
2022/05/20 10:40:39;;;;;;;4.55;2.92;;;;;;;25.10;39.43;101508.03;5022666;28;20233;-52
2022/05/20 10:43:17;;;;;;;2.80;2.60;;;;;;;24.86;37.63;101513.66;4977776;28;20234;-53
2022/05/20 10:48:50;;;;;;;4.60;3.40;;;;;;;24.75;39.79;101505.25;5007423;28;20239;-53
2022/05/20 10:51:32;;;;;;;3.45;2.25;;;;;;;25.21;39.56;101506.59;5022590;28;20244;-51
2022/05/20 10:54:06;;;;;;;11.90;10.52;;;;;;;25.15;38.01;101496.13;5024211;28;20237;-53
2022/05/20 10:56:51;;;;;;;2.45;2.25;;;;;;;25.77;35.95;101490.31;5027448;28;20235;-53
2022/05/20 10:59:36;;;;;;;3.20;2.00;;;;;;;26.16;33.96;101481.97;5025739;28;20259;-53
2022/05/20 11:02:21;;;;;;;2.53;1.80;;;;;;;26.48;34.09;101490.13;5028459;28;20236;-53
2022/05/20 11:05:01;;;;;;;3.17;1.98;;;;;;;26.60;34.99;101482.22;5024314;28;20232;-54
2022/05/20 11:07:47;;;;;;;5.05;2.15;;;;;;;26.82;34.47;101475.63;5027188;28;20329;-57
2022/05/20 11:10:41;;;;;;;2.50;2.30;;;;;;;26.94;33.66;101474.91;5021582;28;20237;-52
2022/05/20 11:13:15;;;;;;;2.90;2.05;;;;;;;27.08;34.82;101453.41;5028285;28;20236;-52
2022/05/20 11:15:57;;;;;;;2.42;2.05;;;;;;;26.85;35.87;101472.72;5024489;28;20223;-52
2022/05/20 11:18:42;;;;;;;2.40;2.20;;;;;;;27.17;35.72;101464.63;5030888;28;20225;-52
2022/05/20 11:21:24;;;;;;;2.80;2.30;;;;;;;27.25;36.29;101457.84;5021936;28;20236;-53
2022/05/20 11:24:03;;;;;;;2.25;1.85;;;;;;;27.71;34.59;101452.34;5022004;28;20954;-53
2022/05/20 11:26:43;;;;;;;2.25;1.80;;;;;;;27.92;33.77;101452.88;5016323;28;20762;-56
2022/05/20 11:29:32;;;;;;;3.47;2.17;;;;;;;28.06;34.52;101450.19;5024455;28;20310;-60
2022/05/20 11:32:04;;;;;;;3.45;2.50;;;;;;;28.07;35.02;101441.13;5028856;28;20240;-52
2022/05/20 11:34:43;;;;;;;3.17;2.90;;;;;;;27.50;35.35;101446.44;5029370;28;20279;-54
2022/05/20 11:37:24;;;;;;;2.47;2.30;;;;;;;27.87;36.44;101435.22;5028130;28;20239;-54
2022/05/20 11:40:03;;;;;;;2.92;2.70;;;;;;;28.24;35.29;101433.78;5025283;28;20239;-55
2022/05/20 11:42:42;;;;;;;2.05;1.90;;;;;;;28.84;32.78;101422.66;5024910;28;20240;-53
2022/05/20 11:45:16;;;;;;;2.38;2.17;;;;;;;29.18;32.57;101413.16;5021629;28;20225;-54
2022/05/20 11:48:25;;;;;;;2.90;2.17;;;;;;;29.43;32.60;101406.06;5022853;28;20225;-51
2022/05/20 11:51:14;;;;;;;3.80;2.47;;;;;;;28.92;34.27;101409.50;5010833;28;20374;-53
2022/05/20 11:53:45;;;;;;;2.45;2.10;;;;;;;29.32;33.67;101400.53;5028850;28;20292;-52
2022/05/20 11:56:16;;;;;;;2.25;2.13;;;;;;;29.31;33.47;101407.78;5029342;28;20808;-53
2022/05/20 11:58:48;;;;;;;2.65;2.45;;;;;;;29.26;33.54;101399.09;5022442;28;20235;-52
2022/05/20 12:01:15;;;;;;;3.05;2.05;;;;;;;29.61;33.13;101393.97;5025996;28;20311;-52
2022/05/20 12:06:30;;;;;;;2.35;2.15;;;;;;;29.77;31.71;101391.06;5027461;28;20236;-52
2022/05/20 12:08:58;;;;;;;3.00;2.10;;;;;;;30.10;31.01;101381.47;5026064;28;20225;-54
2022/05/20 12:11:28;;;;;;;1.67;1.50;;;;;;;30.19;30.65;101375.41;5027764;28;20235;-52